createdAt,value
2023-04-28T00:01:02.841Z,5.57
2023-04-28T00:03:35.720Z,6.15
2023-04-28T00:06:06.242Z,4.45
2023-04-28T00:08:36.601Z,4.53
2023-04-28T00:11:06.804Z,6.05
2023-04-28T00:13:36.829Z,5.50
2023-04-28T00:16:07.223Z,7.03
2023-04-28T00:18:39.908Z,4.78
2023-04-28T00:21:10.136Z,4.68
2023-04-28T00:23:40.311Z,3.80
2023-04-28T00:26:10.579Z,3.38
2023-04-28T00:28:41.425Z,6.82
2023-04-28T00:31:14.557Z,3.85
2023-04-28T00:33:47.797Z,6.55
2023-04-28T00:36:17.869Z,2.90
2023-04-28T00:38:47.921Z,4.38
2023-04-28T00:41:17.898Z,6.57
2023-04-28T00:43:49.250Z,6.40
2023-04-28T00:46:25.280Z,4.13
2023-04-28T00:48:58.540Z,3.92
2023-04-28T00:51:29.301Z,3.55
2023-04-28T00:54:00.138Z,3.60
2023-04-28T00:56:31.412Z,4.47
2023-04-28T00:59:01.736Z,4.65
2023-04-28T01:01:32.323Z,3.65
2023-04-28T01:04:05.360Z,3.97
2023-04-28T01:06:37.546Z,5.57
2023-04-28T01:09:07.782Z,7.25
2023-04-28T01:11:39.086Z,3.88
2023-04-28T01:14:11.775Z,4.82
2023-04-28T01:16:44.686Z,5.78
2023-04-28T01:19:23.084Z,5.53
2023-04-28T01:21:54.953Z,5.68
2023-04-28T01:24:29.176Z,6.30
2023-04-28T01:27:03.158Z,7.28
2023-04-28T01:29:33.154Z,6.53
2023-04-28T01:32:03.801Z,4.75
2023-04-28T01:34:33.953Z,5.10
2023-04-28T01:37:04.125Z,7.10
2023-04-28T01:39:37.684Z,5.20
2023-04-28T01:42:08.146Z,5.97
2023-04-28T01:44:38.197Z,8.05
2023-04-28T01:47:08.588Z,4.25
2023-04-28T01:49:38.964Z,8.35
2023-04-28T01:52:11.324Z,5.43
2023-04-28T01:54:43.934Z,5.55
2023-04-28T01:57:14.441Z,5.72
2023-04-28T01:59:45.762Z,4.25
2023-04-28T02:02:16.080Z,5.13
2023-04-28T02:04:46.367Z,4.90
2023-04-28T02:07:16.447Z,7.22
2023-04-28T02:09:49.337Z,3.40
2023-04-28T02:12:19.401Z,6.90
2023-04-28T02:14:49.412Z,5.78
2023-04-28T02:17:19.533Z,4.68
2023-04-28T02:19:49.566Z,4.90
2023-04-28T02:22:19.684Z,4.28
2023-04-28T02:24:52.465Z,4.88
2023-04-28T02:27:23.079Z,2.97
2023-04-28T02:29:53.284Z,6.45
2023-04-28T02:32:24.876Z,4.68
2023-04-28T02:34:56.663Z,4.65
2023-04-28T02:37:27.030Z,4.93
2023-04-28T02:39:59.668Z,6.43
2023-04-28T02:42:29.703Z,3.03
2023-04-28T02:44:59.721Z,3.78
2023-04-28T02:47:29.796Z,5.97
2023-04-28T02:49:59.854Z,5.88
2023-04-28T02:52:30.053Z,4.22
2023-04-28T02:55:03.922Z,6.85
2023-04-28T02:57:34.215Z,5.68
2023-04-28T03:00:05.628Z,2.83
2023-04-28T03:02:43.525Z,7.25
2023-04-28T03:05:13.666Z,3.40
2023-04-28T03:07:43.821Z,5.72
2023-04-28T03:10:16.674Z,6.70
2023-04-28T03:12:46.791Z,4.20
2023-04-28T03:15:16.878Z,8.70
2023-04-28T03:17:47.132Z,4.68
2023-04-28T03:20:17.355Z,3.53
2023-04-28T03:22:47.920Z,5.65
2023-04-28T03:25:20.977Z,5.38
2023-04-28T03:27:54.271Z,6.32
2023-04-28T03:30:25.352Z,5.93
2023-04-28T03:32:55.488Z,5.95
2023-04-28T03:35:25.655Z,5.75
2023-04-28T03:37:55.831Z,4.47
2023-04-28T03:40:28.964Z,5.15
2023-04-28T03:43:31.326Z,9.05
2023-04-28T03:46:15.052Z,5.80
2023-04-28T03:48:46.315Z,5.45
2023-04-28T03:51:16.753Z,6.40
2023-04-28T03:53:46.777Z,3.33
2023-04-28T03:56:19.677Z,6.93
2023-04-28T03:58:49.841Z,5.55
2023-04-28T04:01:20.223Z,4.88
2023-04-28T04:03:52.030Z,5.60
2023-04-28T04:06:22.495Z,7.63
2023-04-28T04:08:53.077Z,4.93
2023-04-28T04:11:25.844Z,8.10
2023-04-28T04:13:55.897Z,5.18
2023-04-28T04:16:29.704Z,7.78
2023-04-28T04:19:01.191Z,8.13
2023-04-28T04:21:44.736Z,5.38
2023-04-28T04:24:14.991Z,5.32
2023-04-28T04:26:48.286Z,5.00
2023-04-28T04:29:37.543Z,4.05
2023-04-28T04:32:14.024Z,4.80
2023-04-28T04:34:45.305Z,5.82
2023-04-28T04:37:15.423Z,6.72
2023-04-28T04:39:55.201Z,5.68
2023-04-28T04:42:27.838Z,7.43
2023-04-28T04:45:20.194Z,3.92
2023-04-28T04:47:50.578Z,6.15
2023-04-28T04:50:21.244Z,4.63
2023-04-28T04:52:51.404Z,5.63
2023-04-28T04:55:22.828Z,5.75
2023-04-28T04:57:55.478Z,5.85
2023-04-28T05:00:43.914Z,6.90
2023-04-28T05:03:15.051Z,10.90
2023-04-28T05:05:46.347Z,5.88
2023-04-28T05:08:23.394Z,5.63
2023-04-28T05:10:53.413Z,5.35
2023-04-28T05:13:26.208Z,4.82
2023-04-28T05:16:02.489Z,6.97
2023-04-28T05:18:56.284Z,6.00
2023-04-28T05:21:26.648Z,6.40
2023-04-28T05:23:57.578Z,5.85
2023-04-28T05:26:27.909Z,4.22
2023-04-28T05:29:04.231Z,4.55
2023-04-28T05:31:34.430Z,4.75
2023-04-28T05:34:04.719Z,5.07
2023-04-28T05:36:34.918Z,9.05
2023-04-28T05:39:05.417Z,4.88
2023-04-28T05:41:35.533Z,4.68
2023-04-28T05:44:08.782Z,6.05
2023-04-28T05:46:40.087Z,4.60
2023-04-28T05:49:11.769Z,5.78
2023-04-28T05:51:42.700Z,5.40
2023-04-28T05:54:12.813Z,4.32
2023-04-28T05:56:47.997Z,4.97
2023-04-28T05:59:20.817Z,5.65
2023-04-28T06:01:51.085Z,5.15
2023-04-28T06:04:21.631Z,6.90
2023-04-28T06:06:53.126Z,5.88
2023-04-28T06:09:23.194Z,8.20
2023-04-28T06:11:53.284Z,7.53
2023-04-28T06:14:26.296Z,5.90
2023-04-28T06:16:56.446Z,6.15
2023-04-28T06:19:26.525Z,5.82
2023-04-28T06:21:56.573Z,6.88
2023-04-28T06:24:26.868Z,8.15
2023-04-28T06:26:59.059Z,7.35
2023-04-28T06:29:32.279Z,6.15
2023-04-28T06:32:02.363Z,7.50
2023-04-28T06:34:33.023Z,7.93
2023-04-28T06:37:03.143Z,7.05
2023-04-28T06:39:33.225Z,6.60
2023-04-28T06:42:03.372Z,6.13
2023-04-28T06:44:39.063Z,7.60
2023-04-28T06:47:09.262Z,11.02
2023-04-28T06:49:44.126Z,7.97
2023-04-28T06:52:14.515Z,7.13
2023-04-28T06:54:44.744Z,8.30
2023-04-28T06:57:14.797Z,7.30
2023-04-28T06:59:47.396Z,7.00
2023-04-28T07:02:17.694Z,6.63
2023-04-28T07:04:48.474Z,6.53
2023-04-28T07:07:18.670Z,6.88
2023-04-28T07:09:48.729Z,7.97
2023-04-28T07:12:18.774Z,10.93
2023-04-28T07:14:51.807Z,8.80
2023-04-28T07:17:22.149Z,6.03
2023-04-28T07:19:52.797Z,6.07
2023-04-28T07:22:22.868Z,7.25
2023-04-28T07:24:52.952Z,10.98
2023-04-28T07:27:23.447Z,8.02
2023-04-28T07:29:56.137Z,5.82
2023-04-28T07:32:26.220Z,6.78
2023-04-28T07:34:56.320Z,11.65
2023-04-28T07:37:26.332Z,8.88
2023-04-28T07:39:56.345Z,8.93
2023-04-28T07:42:27.544Z,9.02
2023-04-28T07:45:00.609Z,10.32
2023-04-28T07:47:30.687Z,12.15
2023-04-28T07:50:03.690Z,10.95
2023-04-28T07:52:34.262Z,9.30
2023-04-28T07:55:04.720Z,8.13
2023-04-28T07:57:35.101Z,7.70
2023-04-28T08:00:09.891Z,7.47
2023-04-28T08:02:42.986Z,8.70
2023-04-28T08:05:13.456Z,12.27
2023-04-28T08:07:43.723Z,7.40
2023-04-28T08:10:14.376Z,10.15
2023-04-28T08:12:45.400Z,10.98
2023-04-28T08:15:18.577Z,8.82
2023-04-28T08:17:48.884Z,9.70
2023-04-28T08:20:21.629Z,9.32
2023-04-28T08:25:23.784Z,10.70
2023-04-28T08:27:57.147Z,7.70
2023-04-28T08:30:30.237Z,11.85
2023-04-28T08:33:00.550Z,11.65
2023-04-28T08:35:30.644Z,14.82
2023-04-28T08:38:00.768Z,11.25
2023-04-28T08:40:31.637Z,8.68
2023-04-28T08:43:02.565Z,12.48
2023-04-28T08:45:43.659Z,11.13
2023-04-28T08:48:22.259Z,15.60
2023-04-28T08:50:55.006Z,12.32
2023-04-28T08:53:28.276Z,15.43
2023-04-28T08:56:00.205Z,11.77
2023-04-28T08:58:31.534Z,12.48
2023-04-28T09:01:05.103Z,15.02
2023-04-28T09:03:35.593Z,13.35
2023-04-28T09:06:06.591Z,11.35
2023-04-28T09:08:36.710Z,14.52
2023-04-28T09:11:11.355Z,9.93
2023-04-28T09:13:41.432Z,12.15
2023-04-28T09:16:14.590Z,11.65
2023-04-28T09:18:59.853Z,13.25
2023-04-28T09:21:29.844Z,12.73
2023-04-28T09:23:59.882Z,11.23
2023-04-28T09:26:29.903Z,10.95
2023-04-28T09:29:15.793Z,10.32
2023-04-28T09:31:48.812Z,10.98
2023-04-28T09:34:19.085Z,15.35
2023-04-28T09:36:49.249Z,12.45
2023-04-28T09:39:31.574Z,11.35
2023-04-28T09:42:03.694Z,10.45
2023-04-28T09:44:33.759Z,13.02
2023-04-28T09:47:23.572Z,10.93
2023-04-28T09:49:58.015Z,12.20
2023-04-28T09:52:28.250Z,16.60
2023-04-28T09:54:59.830Z,15.80
2023-04-28T09:57:34.396Z,11.50
2023-04-28T10:00:07.007Z,11.55
2023-04-28T10:02:43.739Z,14.05
2023-04-28T10:05:15.281Z,16.10
2023-04-28T10:07:46.220Z,15.70
2023-04-28T10:10:17.227Z,12.45
2023-04-28T10:12:47.283Z,13.70
2023-04-28T10:15:17.482Z,14.30
2023-04-28T10:17:53.458Z,15.00
2023-04-28T10:20:26.337Z,11.38
2023-04-28T10:23:05.447Z,13.80
2023-04-28T10:25:39.293Z,10.65
2023-04-28T10:28:10.759Z,9.95
2023-04-28T10:30:40.844Z,11.60
2023-04-28T10:33:31.511Z,11.02
2023-04-28T10:36:01.588Z,8.88
2023-04-28T10:38:31.644Z,10.80
2023-04-28T10:41:03.281Z,11.68
2023-04-28T10:43:38.225Z,11.20
2023-04-28T10:46:10.095Z,9.63
2023-04-28T10:49:00.779Z,12.88
2023-04-28T10:51:39.437Z,14.43
2023-04-28T10:54:22.641Z,11.75
2023-04-28T10:57:22.928Z,11.57
2023-04-28T10:59:54.414Z,12.23
2023-04-28T11:02:44.431Z,9.65
2023-04-28T11:05:22.244Z,10.20
2023-04-28T11:08:32.070Z,10.50
2023-04-28T11:11:21.357Z,9.60
2023-04-28T11:13:52.097Z,9.10
2023-04-28T11:16:24.603Z,8.70
2023-04-28T11:19:14.288Z,11.43
2023-04-28T11:21:47.142Z,8.65
2023-04-28T11:24:17.690Z,9.55
2023-04-28T11:26:48.088Z,9.15
2023-04-28T11:29:18.226Z,9.48
2023-04-28T11:31:53.204Z,7.35
2023-04-28T11:34:24.415Z,8.48
2023-04-28T11:36:57.248Z,8.50
2023-04-28T11:39:32.326Z,7.63
2023-04-28T11:42:03.810Z,10.00
2023-04-28T11:44:34.583Z,8.95
2023-04-28T11:47:06.925Z,8.68
2023-04-28T11:49:46.335Z,10.48
2023-04-28T11:52:20.038Z,10.82
2023-04-28T11:54:56.827Z,8.20
2023-04-28T11:57:27.094Z,7.20
2023-04-28T11:59:57.148Z,7.75
2023-04-28T12:02:31.963Z,10.55
2023-04-28T12:05:09.296Z,6.45
2023-04-28T12:07:46.971Z,9.50
2023-04-28T12:10:19.942Z,7.40
2023-04-28T12:12:53.010Z,7.13
2023-04-28T12:15:25.590Z,7.75
2023-04-28T12:17:55.687Z,10.07
2023-04-28T12:20:39.586Z,8.15
2023-04-28T12:23:12.473Z,7.43
2023-04-28T12:25:49.314Z,8.90
2023-04-28T12:28:19.330Z,8.80
2023-04-28T12:30:49.333Z,7.20
2023-04-28T12:33:27.232Z,7.93
2023-04-28T12:36:04.383Z,7.75
2023-04-28T12:38:50.729Z,8.32
2023-04-28T12:41:20.713Z,6.63
2023-04-28T12:43:50.763Z,7.15
2023-04-28T12:46:20.885Z,7.53
2023-04-28T12:48:51.390Z,7.20
2023-04-28T12:51:21.908Z,7.63
2023-04-28T12:53:54.577Z,7.38
2023-04-28T12:56:24.905Z,9.70
2023-04-28T12:58:54.956Z,7.85
2023-04-28T13:01:25.291Z,7.93
2023-04-28T13:03:55.394Z,7.28
2023-04-28T13:06:25.599Z,6.97
2023-04-28T13:08:58.242Z,9.15
2023-04-28T13:11:28.895Z,7.82
2023-04-28T13:13:59.593Z,6.80
2023-04-28T13:16:31.239Z,7.78
2023-04-28T13:19:01.491Z,7.10
2023-04-28T13:21:32.185Z,7.68
2023-04-28T13:24:04.876Z,6.35
2023-04-28T13:26:34.920Z,7.60
2023-04-28T13:29:05.171Z,6.55
2023-04-28T13:31:35.302Z,6.82
2023-04-28T13:34:06.270Z,7.85
2023-04-28T13:36:36.440Z,7.40
2023-04-28T13:39:11.672Z,6.20
2023-04-28T13:41:41.684Z,7.07
2023-04-28T13:44:12.283Z,8.15
2023-04-28T13:46:42.326Z,7.13
2023-04-28T13:49:13.096Z,7.45
2023-04-28T13:51:43.125Z,8.25
2023-04-28T13:54:15.772Z,9.13
2023-04-28T13:56:45.988Z,7.53
2023-04-28T13:59:16.892Z,6.65
2023-04-28T14:01:46.960Z,5.13
2023-04-28T14:04:17.138Z,6.78
2023-04-28T14:06:47.420Z,7.32
2023-04-28T14:09:20.048Z,5.75
2023-04-28T14:11:50.093Z,5.20
2023-04-28T14:14:20.227Z,5.30
2023-04-28T14:16:50.941Z,5.30
2023-04-28T14:19:21.266Z,4.78
2023-04-28T14:21:51.565Z,4.72
2023-04-28T14:24:24.362Z,4.20
2023-04-28T14:26:55.666Z,5.53
2023-04-28T14:29:25.675Z,4.57
2023-04-28T14:31:55.670Z,5.70
2023-04-28T14:34:25.720Z,5.93
2023-04-28T14:36:55.833Z,6.60
2023-04-28T14:39:28.755Z,5.68
2023-04-28T14:41:58.890Z,4.95
2023-04-28T14:44:28.864Z,3.95
2023-04-28T14:46:59.246Z,4.45
2023-04-28T14:49:29.514Z,4.13
2023-04-28T14:52:00.956Z,4.45
2023-04-28T14:54:33.729Z,3.95
2023-04-28T14:57:04.291Z,4.88
2023-04-28T14:59:35.697Z,5.15
2023-04-28T15:02:06.264Z,5.35
2023-04-28T15:04:39.608Z,4.78
2023-04-28T15:07:10.431Z,4.53
2023-04-28T15:09:44.065Z,5.10
2023-04-28T15:12:14.141Z,5.68
2023-04-28T15:14:44.398Z,4.05
2023-04-28T15:17:14.455Z,4.55
2023-04-28T15:19:44.523Z,4.72
2023-04-28T15:22:14.596Z,5.38
2023-04-28T15:24:47.543Z,3.95
2023-04-28T15:27:18.030Z,3.40
2023-04-28T15:29:48.094Z,4.63
2023-04-28T15:32:18.396Z,3.55
2023-04-28T15:34:49.173Z,4.03
2023-04-28T15:37:45.049Z,3.40
2023-04-28T15:40:19.467Z,6.47
2023-04-28T15:42:53.092Z,4.55
2023-04-28T15:45:24.421Z,3.60
2023-04-28T15:47:55.197Z,4.93
2023-04-28T15:50:25.517Z,4.00
2023-04-28T15:52:56.213Z,3.60
2023-04-28T15:55:28.909Z,4.22
2023-04-28T15:57:59.342Z,4.28
2023-04-28T16:00:29.415Z,4.28
2023-04-28T16:03:01.525Z,3.08
2023-04-28T16:05:32.118Z,4.07
2023-04-28T16:08:02.093Z,4.13
2023-04-28T16:10:34.817Z,3.58
2023-04-28T16:13:05.424Z,4.22
2023-04-28T16:15:35.607Z,4.78
2023-04-28T16:18:08.636Z,5.68
2023-04-28T16:20:38.723Z,4.07
2023-04-28T16:23:09.615Z,4.03
2023-04-28T16:25:42.343Z,9.68
2023-04-28T16:28:12.373Z,5.28
2023-04-28T16:30:42.413Z,6.53
2023-04-28T16:33:12.499Z,10.43
2023-04-28T16:35:42.503Z,10.93
2023-04-28T16:38:13.553Z,7.47
2023-04-28T16:43:22.208Z,4.30
2023-04-28T16:45:52.353Z,3.55
2023-04-28T16:48:23.853Z,5.38
2023-04-28T16:50:54.307Z,4.20
2023-04-28T16:53:24.679Z,4.18
2023-04-28T16:55:54.971Z,4.55
2023-04-28T16:58:27.616Z,5.57
2023-04-28T17:00:57.984Z,3.42
2023-04-28T17:03:28.514Z,4.35
2023-04-28T17:05:59.546Z,3.90
2023-04-28T17:08:29.869Z,4.10
2023-04-28T17:11:00.227Z,3.40
2023-04-28T17:13:34.223Z,4.05
2023-04-28T17:18:34.676Z,5.00
2023-04-28T17:21:05.630Z,4.18
2023-04-28T17:23:35.908Z,3.00
2023-04-28T17:26:06.824Z,3.78
2023-04-28T17:28:41.035Z,4.55
2023-04-28T17:31:13.641Z,2.90
2023-04-28T17:33:43.864Z,4.03
2023-04-28T17:36:13.865Z,4.68
2023-04-28T17:38:44.208Z,2.60
2023-04-28T17:41:15.302Z,5.20
2023-04-28T17:43:48.601Z,1.90
2023-04-28T17:46:19.141Z,2.33
2023-04-28T17:48:49.652Z,1.75
2023-04-28T17:51:19.994Z,1.67
2023-04-28T17:53:50.669Z,0.90
2023-04-28T17:56:20.930Z,1.25
2023-04-28T17:58:53.837Z,1.50
2023-04-28T18:01:24.168Z,1.25
2023-04-28T18:03:55.872Z,1.15
2023-04-28T18:06:26.206Z,0.55
2023-04-28T18:08:56.496Z,2.72
2023-04-28T18:11:28.097Z,1.65
2023-04-28T18:14:01.217Z,2.33
2023-04-28T18:16:31.580Z,1.63
2023-04-28T18:19:01.919Z,2.10
2023-04-28T18:21:32.388Z,1.40
2023-04-28T18:24:03.089Z,1.73
2023-04-28T18:26:33.404Z,1.08
2023-04-28T18:29:06.297Z,1.80
2023-04-28T18:31:36.848Z,1.90
2023-04-28T18:34:07.430Z,4.30
2023-04-28T18:36:38.426Z,3.20
2023-04-28T18:39:09.253Z,4.20
2023-04-28T18:41:40.306Z,3.88
2023-04-28T18:44:13.430Z,6.68
2023-04-28T18:46:43.947Z,6.43
2023-04-28T18:49:14.795Z,4.00
2023-04-28T18:51:45.098Z,3.85
2023-04-28T18:54:16.501Z,2.90
2023-04-28T18:56:48.146Z,4.40
2023-04-28T18:59:21.111Z,2.67
2023-04-28T19:01:51.448Z,3.60
2023-04-28T19:04:23.035Z,4.00
2023-04-28T19:06:53.666Z,4.20
2023-04-28T19:09:24.090Z,2.80
2023-04-28T19:11:54.471Z,4.82
2023-04-28T19:14:27.353Z,2.42
2023-04-28T19:16:57.711Z,5.80
2023-04-28T19:19:28.062Z,6.05
2023-04-28T19:21:58.384Z,4.88
2023-04-28T19:24:29.435Z,7.07
2023-04-28T19:27:01.807Z,9.38
2023-04-28T19:29:34.715Z,7.55
2023-04-28T19:32:05.007Z,5.00
2023-04-28T19:34:35.300Z,7.13
2023-04-28T19:37:10.028Z,6.35
2023-04-28T19:39:40.322Z,9.35
2023-04-28T19:42:10.727Z,6.25
2023-04-28T19:44:43.875Z,3.65
2023-04-28T19:47:14.779Z,3.03
2023-04-28T19:49:45.257Z,3.20
2023-04-28T19:52:15.799Z,6.07
2023-04-28T19:54:46.217Z,2.65
2023-04-28T19:57:16.538Z,2.45
2023-04-28T19:59:49.847Z,3.50
2023-04-28T20:02:21.343Z,3.92
2023-04-28T20:04:52.063Z,4.80
2023-04-28T20:07:22.541Z,2.92
2023-04-28T20:09:52.893Z,2.22
2023-04-28T20:12:23.269Z,2.50
2023-04-28T20:14:56.165Z,3.25
2023-04-28T20:17:26.751Z,4.35
2023-04-28T20:19:57.067Z,3.50
2023-04-28T20:22:27.432Z,2.90
2023-04-28T20:25:00.658Z,2.88
2023-04-28T20:27:30.994Z,4.13
2023-04-28T20:30:03.922Z,2.05
2023-04-28T20:32:36.932Z,2.67
2023-04-28T20:35:07.751Z,3.53
2023-04-28T20:37:38.056Z,4.95
2023-04-28T20:40:10.332Z,3.47
2023-04-28T20:42:40.802Z,2.38
2023-04-28T20:45:14.312Z,1.65
2023-04-28T20:47:45.424Z,2.78
2023-04-28T20:50:15.849Z,2.90
2023-04-28T20:52:46.967Z,2.80
2023-04-28T20:55:17.491Z,2.30
2023-04-28T20:57:47.824Z,2.25
2023-04-28T21:00:23.831Z,2.75
2023-04-28T21:02:54.590Z,4.00
2023-04-28T21:05:25.069Z,5.07
2023-04-28T21:07:55.437Z,6.88
2023-04-28T21:10:25.810Z,3.67
2023-04-28T21:12:56.155Z,2.65
2023-04-28T21:15:29.130Z,4.38
2023-04-28T21:17:59.643Z,4.45
2023-04-28T21:20:30.083Z,3.22
2023-04-28T21:23:00.663Z,3.67
2023-04-28T21:25:31.162Z,8.52
2023-04-28T21:28:01.996Z,5.18
2023-04-28T21:30:35.044Z,2.90
2023-04-28T21:33:05.404Z,3.53
2023-04-28T21:35:35.742Z,2.22
2023-04-28T21:38:06.061Z,1.77
2023-04-28T21:40:36.358Z,2.08
2023-04-28T21:43:06.878Z,1.70
2023-04-28T21:45:39.774Z,3.50
2023-04-28T21:48:11.223Z,2.13
2023-04-28T21:50:41.590Z,1.50
2023-04-28T21:53:11.902Z,1.55
2023-04-28T21:55:43.125Z,2.28
2023-04-28T21:58:13.426Z,1.63
2023-04-28T22:00:47.350Z,1.10
2023-04-28T22:03:18.150Z,1.88
2023-04-28T22:05:48.664Z,1.35
2023-04-28T22:08:19.611Z,3.55
2023-04-28T22:10:49.970Z,1.85
2023-04-28T22:13:22.205Z,2.58
2023-04-28T22:15:56.366Z,3.13
2023-04-28T22:18:26.704Z,1.77
2023-04-28T22:20:57.074Z,1.33
2023-04-28T22:23:27.388Z,1.30
2023-04-28T22:25:57.668Z,1.45
2023-04-28T22:28:27.961Z,3.05
2023-04-28T22:31:00.936Z,2.13
2023-04-28T22:33:31.372Z,3.38
2023-04-28T22:36:01.867Z,2.05
2023-04-28T22:38:32.198Z,1.50
2023-04-28T22:41:02.743Z,1.52
2023-04-28T22:43:33.121Z,1.58
2023-04-28T22:46:06.249Z,2.50
2023-04-28T22:48:36.803Z,1.00
2023-04-28T22:51:07.260Z,2.88
2023-04-28T22:53:37.548Z,1.17
2023-04-28T22:56:08.121Z,2.10
2023-04-28T22:58:38.547Z,1.38
2023-04-28T23:01:11.865Z,1.60
2023-04-28T23:03:42.473Z,0.65
2023-04-28T23:06:12.945Z,1.13
2023-04-28T23:08:43.312Z,1.63
2023-04-28T23:11:13.612Z,1.25
2023-04-28T23:13:43.969Z,1.08
2023-04-28T23:16:16.938Z,0.75
2023-04-28T23:18:47.429Z,1.27
2023-04-28T23:21:17.722Z,1.23
2023-04-28T23:23:48.142Z,1.63
2023-04-28T23:26:18.482Z,1.88
2023-04-28T23:28:48.812Z,2.30
2023-04-28T23:31:21.716Z,1.83
2023-04-28T23:33:52.322Z,0.88
2023-04-28T23:36:22.580Z,3.03
2023-04-28T23:38:53.046Z,1.48
2023-04-28T23:41:23.332Z,0.95
2023-04-28T23:43:53.994Z,1.08
2023-04-28T23:46:29.168Z,2.67
2023-04-28T23:48:59.533Z,1.73
2023-04-28T23:51:30.212Z,2.92
2023-04-28T23:54:01.721Z,1.08
2023-04-28T23:56:32.094Z,1.42
2023-04-28T23:59:02.610Z,2.00
